Time;durP1;ratioP1;P1;durP2;ratioP2;P2;SDS_P1;SDS_P2;PMS_P1;PMS_P2;Temp;Humidity;BMP_temperature;BMP_pressure;BME280_temperature;BME280_humidity;BME280_pressure;Samples;Min_cycle;Max_cycle;Signal;HPM_P1;HPM_P2
2022/05/26 00:00:40;;;;;;;13.18;11.00;;;;;;;22.46;100.00;101032.09;5115730;28;20119;-74
2022/05/26 00:03:26;;;;;;;16.67;12.35;;;;;;;22.32;100.00;101043.66;5115938;28;20439;-73
2022/05/26 00:06:13;;;;;;;17.33;11.57;;;;;;;22.02;100.00;101040.13;5115466;28;20038;-73
2022/05/26 00:09:00;;;;;;;14.20;11.63;;;;;;;22.21;100.00;101039.88;5115837;28;20176;-73
2022/05/26 00:11:45;;;;;;;15.52;11.82;;;;;;;22.05;100.00;101037.28;5101423;28;20096;-73
2022/05/26 00:14:31;;;;;;;12.60;11.15;;;;;;;21.89;100.00;101028.47;5115252;28;20089;-73
2022/05/26 00:17:17;;;;;;;15.82;11.23;;;;;;;21.84;100.00;101011.00;5100102;28;20423;-73
2022/05/26 00:20:04;;;;;;;16.05;11.18;;;;;;;21.74;100.00;100996.50;5114014;28;20028;-73
2022/05/26 00:22:50;;;;;;;15.15;11.05;;;;;;;21.85;100.00;100983.38;5100942;28;20027;-73
2022/05/26 00:25:35;;;;;;;12.95;10.80;;;;;;;21.81;100.00;100980.03;5116048;28;20031;-72
2022/05/26 00:28:21;;;;;;;12.25;10.63;;;;;;;22.30;100.00;100972.63;5116125;28;20034;-73
2022/05/26 00:31:07;;;;;;;13.95;10.90;;;;;;;21.83;100.00;100986.13;5114915;28;20020;-72
2022/05/26 00:33:53;;;;;;;14.82;9.85;;;;;;;22.04;100.00;100994.66;5114725;28;20455;-72
2022/05/26 00:36:38;;;;;;;13.88;10.50;;;;;;;22.08;100.00;100991.75;5100308;28;20023;-73
2022/05/26 00:39:25;;;;;;;12.00;10.23;;;;;;;21.79;100.00;100984.59;5114578;28;20061;-72
2022/05/26 00:42:11;;;;;;;17.73;10.70;;;;;;;21.83;100.00;100969.28;5100444;28;20031;-72
2022/05/26 00:44:57;;;;;;;14.93;10.32;;;;;;;21.95;100.00;100972.06;5099994;28;20061;-73
2022/05/26 00:47:45;;;;;;;13.65;10.63;;;;;;;22.07;100.00;100981.16;5114737;28;20028;-72
2022/05/26 00:50:32;;;;;;;12.73;10.85;;;;;;;22.05;100.00;100981.25;5114939;28;20020;-72
2022/05/26 00:53:44;;;;;;;13.02;10.25;;;;;;;22.13;100.00;100973.63;5114755;28;20020;-72
2022/05/26 00:56:37;;;;;;;11.73;10.25;;;;;;;22.23;100.00;100976.59;5115070;28;20031;-72
2022/05/26 00:59:57;;;;;;;12.90;10.07;;;;;;;21.91;100.00;100978.53;5114788;28;20051;-74
2022/05/26 01:02:54;;;;;;;11.50;9.80;;;;;;;21.56;100.00;100986.88;5114790;28;20118;-72
2022/05/26 01:06:01;;;;;;;12.70;10.35;;;;;;;22.00;100.00;100977.13;5114564;28;20024;-72
2022/05/26 01:08:53;;;;;;;14.32;10.00;;;;;;;22.07;100.00;100965.97;5116000;27;20024;-73
2022/05/26 01:11:42;;;;;;;12.25;9.68;;;;;;;21.82;100.00;100967.56;5113979;28;20023;-73
2022/05/26 01:14:33;;;;;;;14.32;10.93;;;;;;;22.32;100.00;100965.34;5114643;28;20036;-73
2022/05/26 01:17:59;;;;;;;11.18;10.07;;;;;;;22.13;100.00;100976.31;5100721;28;20038;-72
2022/05/26 01:21:09;;;;;;;14.75;10.40;;;;;;;22.21;100.00;100979.38;5103463;28;20040;-75
2022/05/26 01:24:13;;;;;;;14.13;10.75;;;;;;;22.36;100.00;100975.75;5099036;28;20027;-73
2022/05/26 01:27:23;;;;;;;10.68;9.55;;;;;;;22.24;100.00;100967.63;5115010;28;20409;-73
2022/05/26 01:30:19;;;;;;;13.85;10.70;;;;;;;21.98;100.00;100966.53;5115118;28;20038;-73
2022/05/26 01:33:44;;;;;;;14.10;10.07;;;;;;;22.09;100.00;100976.56;5118388;28;20114;-72
2022/05/26 01:36:41;;;;;;;11.90;10.10;;;;;;;22.12;100.00;100979.06;5087954;28;20375;-74
2022/05/26 01:39:40;;;;;;;14.90;10.25;;;;;;;22.05;100.00;100975.03;5103367;28;20024;-73
2022/05/26 01:42:45;;;;;;;12.20;10.70;;;;;;;21.79;100.00;100973.09;5102910;28;20032;-72
2022/05/26 01:45:47;;;;;;;13.82;10.88;;;;;;;22.17;100.00;100975.16;5118973;28;20026;-73
2022/05/26 01:48:45;;;;;;;13.57;10.82;;;;;;;22.13;100.00;100962.09;5103182;28;20038;-73
2022/05/26 01:52:00;;;;;;;12.07;10.80;;;;;;;22.23;100.00;100977.44;5118411;28;20360;-73
2022/05/26 01:55:10;;;;;;;14.90;10.60;;;;;;;22.04;100.00;100973.31;5117330;28;20015;-73
2022/05/26 01:58:13;;;;;;;12.15;10.15;;;;;;;21.97;100.00;100974.63;5118194;28;20019;-72
2022/05/26 02:01:03;;;;;;;11.40;10.25;;;;;;;22.10;100.00;100980.97;5117468;28;20023;-72
2022/05/26 02:03:50;;;;;;;11.45;10.25;;;;;;;22.10;100.00;100983.66;5118473;28;20069;-72
2022/05/26 02:06:41;;;;;;;14.23;10.10;;;;;;;22.44;100.00;100994.84;5103292;28;20019;-73
2022/05/26 02:09:38;;;;;;;13.15;11.30;;;;;;;22.55;100.00;101004.88;5117622;28;20478;-73
2022/05/26 02:12:33;;;;;;;13.32;10.23;;;;;;;22.47;100.00;101000.00;5117502;28;20024;-74
2022/05/26 02:15:36;;;;;;;14.45;10.30;;;;;;;22.07;100.00;101002.50;5089301;28;20046;-74
2022/05/26 02:18:26;;;;;;;12.73;10.65;;;;;;;22.35;100.00;101015.91;5102295;28;20379;-74
2022/05/26 02:21:17;;;;;;;13.15;10.40;;;;;;;22.17;100.00;101044.56;5118061;28;20027;-72
2022/05/26 02:24:30;;;;;;;12.75;10.93;;;;;;;21.92;100.00;101086.13;5116875;28;20146;-73
2022/05/26 02:27:16;;;;;;;15.10;10.07;;;;;;;21.78;100.00;101102.94;5117629;28;20027;-73
2022/05/26 02:30:04;;;;;;;12.23;10.20;;;;;;;21.50;100.00;101113.41;5117116;28;20055;-73
2022/05/26 02:32:53;;;;;;;10.23;9.20;;;;;;;21.59;100.00;101128.91;5102059;28;20040;-72
2022/05/26 02:35:43;;;;;;;9.98;8.88;;;;;;;21.64;100.00;101126.84;5102816;28;20065;-72
2022/05/26 02:38:28;;;;;;;11.23;8.85;;;;;;;21.68;100.00;101114.19;5102925;28;20088;-73
2022/05/26 02:41:14;;;;;;;12.32;9.02;;;;;;;21.90;100.00;101120.06;5117239;28;20031;-72
2022/05/26 02:44:01;;;;;;;12.43;9.38;;;;;;;21.08;100.00;101195.72;5102318;28;20363;-73
2022/05/26 02:47:06;;;;;;;13.70;9.73;;;;;;;21.02;100.00;101172.03;5117018;28;20126;-72
2022/05/26 02:50:16;;;;;;;18.73;8.52;;;;;;;20.70;100.00;101180.81;5117633;28;20027;-72
2022/05/26 02:53:37;;;;;;;10.00;9.00;;;;;;;21.04;100.00;101170.19;5102047;28;20413;-72
2022/05/26 02:56:41;;;;;;;12.60;9.55;;;;;;;20.74;100.00;101161.09;5116297;28;20027;-73
2022/05/26 02:59:46;;;;;;;12.30;9.88;;;;;;;21.13;100.00;101163.50;5102092;28;20038;-73
2022/05/26 03:02:53;;;;;;;11.60;9.50;;;;;;;20.74;100.00;101154.91;5117463;28;20038;-72
2022/05/26 03:05:57;;;;;;;13.35;9.98;;;;;;;20.70;100.00;101134.72;5102390;28;20118;-73
2022/05/26 03:08:43;;;;;;;13.07;10.40;;;;;;;20.93;100.00;101145.06;5116596;28;20034;-73
2022/05/26 03:11:42;;;;;;;13.98;10.27;;;;;;;20.80;100.00;101130.63;5100915;28;20164;-73
2022/05/26 03:14:28;;;;;;;13.93;9.65;;;;;;;20.94;100.00;101131.63;5104048;28;20464;-73
2022/05/26 03:17:13;;;;;;;15.02;10.38;;;;;;;20.88;100.00;101126.63;5116576;28;20173;-73
2022/05/26 03:19:59;;;;;;;13.15;10.98;;;;;;;20.95;100.00;101129.84;5117091;28;20027;-73
2022/05/26 03:22:45;;;;;;;16.00;10.93;;;;;;;21.19;100.00;101140.06;5117100;28;20046;-73
2022/05/26 03:25:31;;;;;;;15.00;10.50;;;;;;;21.34;100.00;101146.34;5117017;28;20034;-73
2022/05/26 03:28:16;;;;;;;12.50;10.52;;;;;;;21.55;100.00;101155.81;5117143;28;20359;-73
2022/05/26 03:31:10;;;;;;;14.80;10.52;;;;;;;21.46;100.00;101153.66;5116382;28;20156;-72
2022/05/26 03:43:10;;;;;;;15.20;10.90;;;;;;;21.81;100.00;101161.44;5116568;28;20313;-73
2022/05/26 03:45:59;;;;;;;14.50;10.80;;;;;;;21.81;100.00;101161.44;5115757;28;20020;-73
2022/05/26 03:48:45;;;;;;;14.65;11.05;;;;;;;22.05;100.00;101162.72;5115463;28;20028;-74
2022/05/26 03:51:31;;;;;;;14.95;11.15;;;;;;;21.83;100.00;101164.03;5100538;28;20027;-73
2022/05/26 03:54:17;;;;;;;14.70;10.57;;;;;;;21.68;100.00;101162.19;5114384;28;20028;-72
2022/05/26 03:57:03;;;;;;;12.82;10.80;;;;;;;22.11;100.00;101161.50;5115222;28;20042;-73
2022/05/26 03:59:49;;;;;;;16.13;11.57;;;;;;;21.98;100.00;101161.34;5115703;28;20115;-73
2022/05/26 04:02:35;;;;;;;15.32;9.85;;;;;;;22.16;100.00;101154.09;5115440;28;20518;-73
2022/05/26 04:05:24;;;;;;;15.10;10.63;;;;;;;22.09;100.00;101153.59;5115576;28;20027;-72
2022/05/26 04:08:10;;;;;;;16.13;10.68;;;;;;;22.27;100.00;101152.50;5115896;28;20440;-73
2022/05/26 04:10:56;;;;;;;18.63;10.50;;;;;;;22.20;100.00;101161.84;5099875;28;20031;-72
2022/05/26 04:13:42;;;;;;;21.23;10.88;;;;;;;22.27;100.00;101167.69;5101011;28;20054;-74
2022/05/26 04:16:31;;;;;;;14.55;10.10;;;;;;;22.36;100.00;101175.16;5100284;28;20129;-73
2022/05/26 04:19:16;;;;;;;17.02;11.50;;;;;;;22.14;100.00;101174.69;5115079;28;20030;-72
2022/05/26 04:22:18;;;;;;;15.88;10.88;;;;;;;22.47;100.00;101175.41;5115690;28;20102;-72
2022/05/26 04:25:05;;;;;;;16.10;10.73;;;;;;;22.61;100.00;101186.13;5115091;28;20015;-72
2022/05/26 04:27:53;;;;;;;16.83;11.23;;;;;;;22.84;100.00;101188.28;5115438;28;20027;-73
2022/05/26 04:30:39;;;;;;;16.15;10.55;;;;;;;22.58;100.00;101172.94;5114293;28;20034;-73
2022/05/26 04:33:25;;;;;;;16.92;10.07;;;;;;;23.07;100.00;101169.88;5114531;28;20398;-74
2022/05/26 04:36:11;;;;;;;18.27;11.35;;;;;;;23.27;100.00;101166.88;5114616;28;20418;-74
2022/05/26 04:38:57;;;;;;;15.10;10.88;;;;;;;22.86;100.00;101173.00;5100066;28;20038;-73
2022/05/26 04:41:43;;;;;;;18.55;10.70;;;;;;;23.33;100.00;101173.66;5114394;28;20023;-73
2022/05/26 04:44:34;;;;;;;20.55;10.27;;;;;;;23.41;100.00;101176.69;5114312;28;20027;-73
2022/05/26 04:47:20;;;;;;;15.45;10.43;;;;;;;23.11;100.00;101168.75;5114887;28;20462;-73
2022/05/26 04:50:07;;;;;;;19.35;10.52;;;;;;;23.13;100.00;101171.31;5114413;28;20467;-73
2022/05/26 04:52:53;;;;;;;16.63;10.43;;;;;;;23.37;100.00;101161.81;5114820;28;20027;-73
2022/05/26 04:55:38;;;;;;;21.27;10.40;;;;;;;23.28;100.00;101163.22;5114060;28;20046;-72
2022/05/26 04:58:24;;;;;;;14.52;9.80;;;;;;;23.58;100.00;101162.25;5114022;28;20066;-72
2022/05/26 05:01:14;;;;;;;22.95;10.90;;;;;;;23.39;100.00;101163.41;5114937;28;20142;-72
2022/05/26 05:04:00;;;;;;;16.55;10.93;;;;;;;23.71;100.00;101169.38;5099832;28;20125;-73
2022/05/26 05:06:46;;;;;;;18.02;9.77;;;;;;;23.61;100.00;101173.63;5113772;28;20019;-73
2022/05/26 05:09:32;;;;;;;15.18;9.40;;;;;;;23.77;100.00;101165.47;5114900;28;20509;-72
2022/05/26 05:12:19;;;;;;;17.10;10.23;;;;;;;23.82;100.00;101161.53;5114173;28;20085;-72
2022/05/26 05:15:10;;;;;;;13.20;9.63;;;;;;;23.68;100.00;101164.25;5114914;28;20115;-72
2022/05/26 05:17:57;;;;;;;13.07;9.85;;;;;;;24.10;100.00;101168.66;5114592;28;20051;-72
2022/05/26 05:20:43;;;;;;;21.98;12.55;;;;;;;23.87;100.00;101174.63;5115124;28;20041;-73
2022/05/26 05:23:29;;;;;;;23.48;11.65;;;;;;;23.56;100.00;101177.53;5113684;28;20059;-73
2022/05/26 05:26:18;;;;;;;20.08;11.15;;;;;;;23.87;100.00;101179.97;5114640;28;20114;-73
2022/05/26 05:29:09;;;;;;;19.77;11.65;;;;;;;23.94;100.00;101184.84;5113807;28;20092;-73
2022/05/26 05:32:00;;;;;;;16.38;11.63;;;;;;;24.12;100.00;101182.78;5114044;28;20043;-73
2022/05/26 05:34:51;;;;;;;20.20;11.55;;;;;;;24.26;100.00;101180.06;5113446;28;20081;-72
2022/05/26 05:37:37;;;;;;;15.52;12.32;;;;;;;24.47;100.00;101178.63;5113829;28;20394;-73
2022/05/26 05:40:24;;;;;;;17.55;11.18;;;;;;;24.63;100.00;101192.75;5114349;28;20031;-73
2022/05/26 05:43:10;;;;;;;13.80;10.40;;;;;;;24.45;100.00;101202.84;5114511;28;20065;-72
2022/05/26 05:45:56;;;;;;;14.93;9.63;;;;;;;24.74;100.00;101200.88;5113610;28;20452;-73
2022/05/26 05:48:43;;;;;;;12.40;8.93;;;;;;;24.88;100.00;101212.41;5114137;28;20123;-72
2022/05/26 05:51:31;;;;;;;15.02;9.82;;;;;;;24.95;100.00;101202.97;5099678;28;20027;-72
2022/05/26 05:54:18;;;;;;;11.57;9.50;;;;;;;25.13;100.00;101206.19;5098362;28;20066;-73
2022/05/26 05:57:05;;;;;;;9.70;8.70;;;;;;;24.72;100.00;101202.84;5114854;28;20066;-72
2022/05/26 05:59:51;;;;;;;11.13;8.88;;;;;;;25.06;100.00;101213.81;5113524;28;20032;-73
2022/05/26 06:02:36;;;;;;;11.77;8.23;;;;;;;25.18;100.00;101212.09;5114225;28;20034;-73
2022/05/26 06:05:22;;;;;;;11.57;8.70;;;;;;;25.20;100.00;101218.22;5114046;28;20089;-72
2022/05/26 06:08:08;;;;;;;11.43;8.30;;;;;;;25.24;100.00;101217.03;5114620;28;20038;-72
2022/05/26 06:10:54;;;;;;;10.45;7.93;;;;;;;25.51;100.00;101217.81;5104805;28;20027;-72
2022/05/26 06:13:40;;;;;;;10.88;7.53;;;;;;;25.75;100.00;101219.59;5103076;28;20130;-72
2022/05/26 06:16:25;;;;;;;14.20;8.55;;;;;;;25.11;100.00;101226.91;5105036;28;20047;-71
2022/05/26 06:19:11;;;;;;;10.32;7.78;;;;;;;25.32;100.00;101244.22;5109226;28;20031;-73
2022/05/26 06:21:57;;;;;;;11.18;7.70;;;;;;;25.03;100.00;101245.34;5106878;28;20027;-74
2022/05/26 06:24:44;;;;;;;13.32;8.07;;;;;;;25.57;100.00;101257.63;5110037;28;20114;-74
2022/05/26 06:30:34;;;;;;;15.93;9.13;;;;;;;25.29;100.00;101260.53;5109026;28;20098;-75
2022/05/26 06:39:29;;;;;;;10.75;8.13;;;;;;;24.86;100.00;101275.13;5108293;28;20027;-80
2022/05/26 06:42:14;;;;;;;12.25;8.27;;;;;;;25.01;100.00;101268.72;5109307;28;20529;-80
2022/05/26 06:45:00;;;;;;;14.77;7.90;;;;;;;25.31;100.00;101277.38;5093001;28;20028;-77
2022/05/26 06:47:46;;;;;;;12.88;9.20;;;;;;;25.54;100.00;101269.44;5108276;28;20031;-81
2022/05/26 06:50:32;;;;;;;12.38;7.72;;;;;;;25.76;100.00;101269.63;5108121;28;20428;-79
2022/05/26 06:53:20;;;;;;;9.07;7.70;;;;;;;26.07;100.00;101263.78;5107658;28;20046;-79
2022/05/26 06:56:06;;;;;;;9.80;7.95;;;;;;;26.18;100.00;101271.94;5108055;28;20485;-80
2022/05/26 06:58:52;;;;;;;33.08;22.83;;;;;;;25.47;100.00;101262.78;5092296;28;20039;-80
2022/05/26 07:01:38;;;;;;;8.48;7.38;;;;;;;25.17;100.00;101262.22;5108276;28;20051;-77
2022/05/26 07:04:24;;;;;;;13.55;7.55;;;;;;;26.41;100.00;101265.69;5107537;28;20015;-79
2022/05/26 07:07:14;;;;;;;10.40;7.20;;;;;;;26.63;100.00;101267.69;5093251;28;20030;-80
2022/05/26 07:10:00;;;;;;;13.05;8.00;;;;;;;26.56;100.00;101274.47;5108511;28;20470;-77
2022/05/26 07:12:46;;;;;;;9.98;7.78;;;;;;;26.81;100.00;101267.13;5108154;28;20042;-79
2022/05/26 07:15:33;;;;;;;11.55;7.82;;;;;;;26.46;100.00;101270.75;5108087;28;20101;-78
2022/05/26 07:18:19;;;;;;;10.70;7.53;;;;;;;26.75;100.00;101272.13;5107544;28;20040;-78
2022/05/26 07:21:07;;;;;;;14.13;11.25;;;;;;;26.84;100.00;101283.06;5107023;28;20038;-77
2022/05/26 07:23:53;;;;;;;21.48;16.55;;;;;;;27.09;100.00;101277.50;5108768;28;20039;-75
2022/05/26 07:26:40;;;;;;;13.30;8.90;;;;;;;27.15;100.00;101279.75;5108590;28;20047;-78
2022/05/26 07:29:26;;;;;;;11.20;7.40;;;;;;;27.49;100.00;101276.16;5105795;28;20073;-76
2022/05/26 07:32:12;;;;;;;8.88;7.10;;;;;;;27.12;100.00;101279.09;5108016;28;20027;-81
2022/05/26 07:34:58;;;;;;;12.25;7.28;;;;;;;27.15;100.00;101284.25;5092665;28;20019;-78
2022/05/26 07:43:57;;;;;;;8.35;6.25;;;;;;;27.94;100.00;101286.97;5108634;28;20031;-77
2022/05/26 07:46:42;;;;;;;6.95;6.25;;;;;;;28.23;99.50;101288.16;5107535;28;20035;-78
2022/05/26 07:49:28;;;;;;;12.25;6.32;;;;;;;28.48;97.63;101286.06;5107706;28;20039;-79
2022/05/26 07:52:15;;;;;;;10.52;5.70;;;;;;;28.28;98.59;101292.19;5091807;28;20039;-78
2022/05/26 07:55:01;;;;;;;7.18;5.78;;;;;;;28.54;96.57;101293.66;5106206;28;20023;-77
2022/05/26 07:57:47;;;;;;;8.05;6.25;;;;;;;28.70;96.64;101296.78;5107263;28;20119;-77
2022/05/26 08:00:33;;;;;;;8.10;6.55;;;;;;;28.38;99.12;101306.66;5107430;28;20029;-78
2022/05/26 08:03:19;;;;;;;9.77;8.40;;;;;;;28.82;96.57;101303.84;5107686;28;20046;-75
2022/05/26 08:06:06;;;;;;;8.70;7.30;;;;;;;28.96;92.88;101300.84;5090032;28;20051;-78
2022/05/26 08:08:52;;;;;;;8.63;6.22;;;;;;;28.51;91.96;101303.81;5092121;28;20027;-77
2022/05/26 08:11:37;;;;;;;11.98;6.50;;;;;;;28.73;93.61;101298.38;5091144;28;20043;-77
2022/05/26 08:14:23;;;;;;;13.02;6.85;;;;;;;29.53;88.57;101308.53;5092303;28;20040;-77
2022/05/26 08:17:11;;;;;;;8.10;6.78;;;;;;;29.81;88.19;101302.47;5105456;28;20019;-78
2022/05/26 08:19:57;;;;;;;14.02;6.07;;;;;;;29.91;85.72;101314.16;5106242;28;20114;-79
2022/05/26 08:22:43;;;;;;;8.80;5.70;;;;;;;30.26;79.45;101312.72;5104228;28;20055;-79
2022/05/26 08:25:29;;;;;;;7.53;5.50;;;;;;;29.88;80.06;101315.28;5106052;28;20020;-80
2022/05/26 08:28:14;;;;;;;6.43;5.30;;;;;;;29.79;81.62;101313.41;5107181;28;20040;-80
2022/05/26 08:31:00;;;;;;;11.43;5.47;;;;;;;30.10;79.27;101320.47;5106328;28;20019;-80
2022/05/26 08:33:46;;;;;;;10.65;5.13;;;;;;;30.22;75.45;101323.97;5091891;28;20439;-80
2022/05/26 08:36:34;;;;;;;7.35;5.72;;;;;;;30.36;72.82;101329.84;5106174;28;20503;-79
2022/05/26 08:39:20;;;;;;;6.00;4.65;;;;;;;30.46;71.96;101327.19;5105936;28;20103;-80
2022/05/26 08:42:11;;;;;;;9.32;4.43;;;;;;;30.58;68.89;101334.19;5105139;28;20114;-80
2022/05/26 08:45:04;;;;;;;9.55;4.65;;;;;;;30.74;68.51;101335.38;5107168;28;20051;-79
2022/05/26 08:47:51;;;;;;;6.85;4.65;;;;;;;30.31;69.07;101337.53;5106012;28;20027;-81
2022/05/26 08:50:40;;;;;;;5.25;4.47;;;;;;;30.09;71.82;101342.25;5090122;28;20051;-80
2022/05/26 08:53:33;;;;;;;9.93;4.60;;;;;;;29.77;71.42;101344.25;5092100;28;20110;-80
2022/05/26 08:56:24;;;;;;;8.18;4.82;;;;;;;30.09;71.19;101339.56;5106334;28;20100;-79
2022/05/26 08:59:13;;;;;;;7.07;4.95;;;;;;;30.11;72.29;101340.25;5105247;28;20083;-80
2022/05/26 09:02:01;;;;;;;6.28;4.85;;;;;;;30.57;71.19;101345.97;5090189;28;20088;-80
2022/05/26 09:04:46;;;;;;;8.95;4.90;;;;;;;30.64;72.05;101339.03;5106338;28;20047;-81
2022/05/26 09:13:51;;;;;;;8.15;4.82;;;;;;;30.62;69.75;101341.88;5105586;28;20052;-75
2022/05/26 09:16:46;;;;;;;27.67;18.48;;;;;;;31.10;68.61;101336.53;5104916;28;20020;-73
2022/05/26 09:19:44;;;;;;;9.65;6.20;;;;;;;30.75;72.01;101338.94;5104323;28;20034;-73
2022/05/26 09:22:40;;;;;;;18.33;14.23;;;;;;;30.86;71.11;101338.81;5106076;28;20026;-74
2022/05/26 09:25:42;;;;;;;12.43;5.70;;;;;;;30.85;71.14;101346.06;5105463;28;20030;-73
2022/05/26 09:28:53;;;;;;;7.22;5.50;;;;;;;31.00;70.17;101339.25;5091591;28;20031;-75
2022/05/26 09:31:54;;;;;;;12.80;6.13;;;;;;;30.86;71.99;101344.22;5091717;28;20434;-76
2022/05/26 09:34:42;;;;;;;10.57;5.80;;;;;;;30.54;70.29;101343.56;5105824;28;20516;-75
2022/05/26 09:38:01;;;;;;;11.52;5.70;;;;;;;30.49;72.68;101343.97;5090231;28;20030;-75
2022/05/26 09:40:48;;;;;;;11.23;5.90;;;;;;;30.53;74.28;101336.44;5104386;28;20035;-73
2022/05/26 09:43:40;;;;;;;10.10;5.97;;;;;;;30.83;69.21;101330.97;5105613;28;20027;-78
2022/05/26 09:46:26;;;;;;;12.85;6.38;;;;;;;30.84;68.43;101329.97;5105082;28;20024;-79
2022/05/26 09:49:13;;;;;;;12.88;6.70;;;;;;;30.80;69.58;101325.84;5090770;28;20046;-79
2022/05/26 09:52:37;;;;;;;10.38;5.68;;;;;;;30.21;72.02;101328.53;5106550;28;20062;-78
2022/05/26 09:55:43;;;;;;;10.48;5.75;;;;;;;30.45;70.67;101331.72;5098651;28;20044;-79
2022/05/26 09:58:37;;;;;;;9.38;6.13;;;;;;;30.03;73.33;101316.63;5110803;28;20024;-79
2022/05/26 10:01:23;;;;;;;10.13;6.28;;;;;;;30.15;74.57;101317.41;5109503;28;20023;-80
2022/05/26 10:04:53;;;;;;;17.55;6.75;;;;;;;29.73;76.27;101324.72;5109187;28;20045;-79
2022/05/26 10:08:02;;;;;;;10.27;6.43;;;;;;;29.97;73.36;101314.47;5109195;28;20121;-79
2022/05/26 10:11:10;;;;;;;7.80;5.80;;;;;;;30.13;73.54;101313.94;5109415;28;20444;-79
2022/05/26 10:14:17;;;;;;;10.02;6.93;;;;;;;30.29;73.93;101322.41;5109294;28;20062;-84
2022/05/26 10:17:05;;;;;;;9.45;6.07;;;;;;;30.17;72.57;101310.00;5091911;28;20035;-76
2022/05/26 10:20:25;;;;;;;7.90;6.28;;;;;;;30.06;75.20;101313.63;5110259;28;20102;-75
2022/05/26 10:23:38;;;;;;;10.65;6.40;;;;;;;30.30;75.48;101308.75;5108822;28;20038;-76
2022/05/26 10:26:38;;;;;;;16.70;6.70;;;;;;;30.31;73.97;101313.19;5110561;28;20449;-76
2022/05/26 10:29:41;;;;;;;12.57;6.47;;;;;;;30.24;74.76;101303.06;5093957;28;20032;-76
2022/05/26 10:33:04;;;;;;;10.73;6.88;;;;;;;30.48;73.53;101295.44;5109935;28;20046;-76
2022/05/26 10:36:11;;;;;;;10.63;6.75;;;;;;;30.30;73.84;101291.69;5109899;28;20038;-76
2022/05/26 10:39:24;;;;;;;10.57;6.30;;;;;;;30.77;73.72;101288.22;5108284;28;20448;-77
2022/05/26 10:42:19;;;;;;;12.80;6.50;;;;;;;30.74;70.03;101281.25;5106978;28;20039;-75
2022/05/26 10:45:17;;;;;;;8.82;6.43;;;;;;;30.51;71.10;101284.34;5107859;28;20133;-76
2022/05/26 10:48:35;;;;;;;8.85;6.00;;;;;;;30.55;67.63;101281.22;5092430;28;20479;-75
2022/05/26 10:51:27;;;;;;;10.70;6.03;;;;;;;30.93;69.26;101269.56;5109851;27;20031;-74
2022/05/26 10:54:18;;;;;;;12.95;7.55;;;;;;;31.20;69.86;101277.81;5108232;28;20032;-76
2022/05/26 10:57:15;;;;;;;13.52;5.95;;;;;;;31.11;66.26;101262.44;5107471;28;20031;-77
2022/05/26 11:00:14;;;;;;;7.13;5.43;;;;;;;31.22;63.99;101263.13;5108620;28;20028;-75
2022/05/26 11:03:03;;;;;;;7.78;5.20;;;;;;;31.25;65.34;101271.00;5107989;28;20444;-76
2022/05/26 11:05:58;;;;;;;9.88;4.82;;;;;;;31.17;61.31;101265.41;5092659;28;20032;-75
2022/05/26 11:08:50;;;;;;;8.57;5.10;;;;;;;31.77;59.87;101274.16;5107374;28;20557;-71
2022/05/26 11:11:46;;;;;;;7.32;4.38;;;;;;;31.91;57.88;101260.09;5106929;28;20466;-71
2022/05/26 11:17:58;;;;;;;10.70;4.88;;;;;;;31.98;56.62;101253.91;5108532;28;20118;-71
2022/05/26 11:20:56;;;;;;;11.23;4.40;;;;;;;31.55;56.74;101253.66;5092360;28;20031;-72
2022/05/26 11:23:49;;;;;;;9.27;4.82;;;;;;;31.77;55.89;101244.34;5106153;28;20028;-72
2022/05/26 11:26:49;;;;;;;12.45;4.45;;;;;;;31.58;55.66;101250.63;5105139;28;20027;-71
2022/05/26 11:29:44;;;;;;;60.60;5.75;;;;;;;31.55;53.51;101250.09;5107618;28;20023;-71
2022/05/26 11:38:45;;;;;;;5.05;3.92;;;;;;;31.48;54.38;101247.13;5107533;28;20027;-71
2022/05/26 11:41:46;;;;;;;7.70;3.70;;;;;;;31.30;55.00;101238.91;5107754;28;20019;-71
2022/05/26 11:44:37;;;;;;;7.82;3.88;;;;;;;31.59;54.42;101235.25;5108217;28;20037;-71
2022/05/26 11:47:26;;;;;;;7.65;3.60;;;;;;;31.93;54.37;101244.56;5093187;28;20046;-71
2022/05/26 11:50:24;;;;;;;12.38;4.45;;;;;;;32.17;54.21;101237.53;5093123;28;20459;-71
2022/05/26 11:53:13;;;;;;;9.98;3.60;;;;;;;31.90;53.91;101240.25;5106035;28;20034;-71
2022/05/26 11:56:23;;;;;;;9.35;3.58;;;;;;;31.92;53.63;101222.00;5107254;28;20061;-71
2022/05/26 11:59:34;;;;;;;9.43;3.70;;;;;;;31.89;52.21;101226.88;5105115;28;20084;-71
2022/05/26 12:02:38;;;;;;;7.72;3.53;;;;;;;32.28;49.85;101222.91;5091999;28;20019;-71
2022/05/26 12:05:29;;;;;;;7.13;3.42;;;;;;;32.45;49.30;101217.53;5092810;28;20399;-72
2022/05/26 12:08:29;;;;;;;7.75;3.00;;;;;;;32.46;46.92;101223.81;5105731;28;20548;-72
2022/05/26 12:11:15;;;;;;;12.40;3.67;;;;;;;32.12;46.96;101218.16;5105095;28;20039;-72
2022/05/26 12:14:03;;;;;;;12.10;3.53;;;;;;;31.93;46.68;101225.56;5106023;28;20079;-75
2022/05/26 12:16:49;;;;;;;8.40;3.60;;;;;;;32.04;47.92;101214.50;5107117;28;20046;-75
2022/05/26 12:19:43;;;;;;;7.35;3.28;;;;;;;32.09;48.13;101217.59;5106538;28;20456;-75
2022/05/26 12:22:31;;;;;;;8.38;3.35;;;;;;;32.38;48.04;101215.59;5091936;28;20035;-73
2022/05/26 12:25:22;;;;;;;12.15;3.20;;;;;;;32.19;47.48;101213.84;5092524;28;20027;-75
2022/05/26 12:28:13;;;;;;;7.60;3.25;;;;;;;32.52;46.86;101206.91;5090806;28;20404;-74
2022/05/26 12:30:59;;;;;;;10.07;3.42;;;;;;;32.30;46.91;101205.50;5091203;28;20031;-75
2022/05/26 12:33:53;;;;;;;9.02;3.10;;;;;;;32.41;46.96;101198.97;5090443;28;20413;-73
2022/05/26 12:36:51;;;;;;;12.65;3.60;;;;;;;32.04;46.95;101187.38;5090520;28;20020;-73
2022/05/26 12:40:22;;;;;;;19.92;3.70;;;;;;;31.89;47.17;101199.78;5105479;28;20027;-73
2022/05/26 12:43:10;;;;;;;8.85;3.20;;;;;;;32.20;47.47;101179.41;5086519;28;20036;-72
2022/05/26 12:46:09;;;;;;;8.52;2.90;;;;;;;32.06;47.76;101188.09;5107023;28;20026;-72
2022/05/26 12:49:32;;;;;;;11.48;3.70;;;;;;;32.33;47.61;101167.22;5104920;28;20051;-72
2022/05/26 12:52:41;;;;;;;9.48;3.30;;;;;;;32.16;46.84;101175.31;5106167;28;20099;-73
2022/05/26 12:55:37;;;;;;;6.95;3.15;;;;;;;32.20;46.26;101171.28;5107103;28;20432;-72
2022/05/26 12:58:37;;;;;;;7.38;3.35;;;;;;;32.41;45.97;101170.00;5092185;28;20583;-71
2022/05/26 13:01:25;;;;;;;7.85;3.80;;;;;;;32.30;46.76;101167.53;5105189;28;20054;-73
2022/05/26 13:04:19;;;;;;;6.53;3.42;;;;;;;32.30;46.27;101161.25;5104765;28;20164;-72
2022/05/26 13:07:07;;;;;;;9.73;3.10;;;;;;;31.86;48.01;101175.66;5104299;28;20027;-71
2022/05/26 13:09:53;;;;;;;9.35;3.47;;;;;;;31.85;47.78;101169.38;5106182;28;20039;-72
2022/05/26 13:12:39;;;;;;;8.75;3.45;;;;;;;31.94;47.28;101167.63;5104437;28;20463;-72
2022/05/26 13:15:27;;;;;;;10.07;3.50;;;;;;;32.28;47.79;101164.09;5105867;28;20051;-72
2022/05/26 13:18:22;;;;;;;8.85;3.70;;;;;;;32.33;48.55;101160.94;5104465;28;20040;-72
2022/05/26 13:21:18;;;;;;;11.25;3.55;;;;;;;32.79;47.51;101158.78;5104257;28;20020;-72
2022/05/26 13:24:15;;;;;;;6.75;3.35;;;;;;;32.48;47.85;101154.81;5104436;28;20024;-72
2022/05/26 13:27:13;;;;;;;5.57;3.30;;;;;;;32.42;47.48;101149.16;5104847;28;20027;-73
2022/05/26 13:33:07;;;;;;;7.07;3.10;;;;;;;32.26;46.95;101155.25;5105664;28;20035;-72
2022/05/26 13:33:12;;;;;;;7.38;3.28;;;;;;;31.87;47.17;101152.97;5104497;28;20148;-72
2022/05/26 13:36:00;;;;;;;8.43;3.20;;;;;;;32.04;47.53;101154.84;5090615;28;20046;-72
2022/05/26 13:38:46;;;;;;;9.00;3.17;;;;;;;32.32;46.20;101140.25;5104242;28;20031;-74
2022/05/26 13:41:33;;;;;;;5.35;3.00;;;;;;;32.37;46.71;101141.47;5104344;28;20401;-72
2022/05/26 13:44:28;;;;;;;12.18;3.38;;;;;;;32.22;45.68;101136.75;5090162;28;20047;-74
2022/05/26 13:47:14;;;;;;;5.20;3.33;;;;;;;31.97;46.46;101145.63;5105222;28;20436;-74